createdAt,value
2022-12-22T00:01:49.957Z,59.61
2022-12-22T00:04:35.919Z,59.98
2022-12-22T00:07:21.480Z,59.76
2022-12-22T00:10:08.260Z,59.82
2022-12-22T00:12:53.479Z,59.66
2022-12-22T00:15:38.530Z,59.50
2022-12-22T00:18:24.113Z,59.47
2022-12-22T00:21:09.419Z,59.69
2022-12-22T00:23:54.538Z,59.87
2022-12-22T00:26:41.394Z,59.87
2022-12-22T00:29:27.775Z,59.98
2022-12-22T00:32:13.210Z,60.11
2022-12-22T00:34:59.710Z,59.95
2022-12-22T00:37:47.564Z,59.87
2022-12-22T00:40:35.424Z,59.88
2022-12-22T00:43:22.313Z,59.80
2022-12-22T00:46:07.644Z,59.86
2022-12-22T00:48:52.955Z,59.88
2022-12-22T00:51:38.441Z,59.78
2022-12-22T00:54:26.831Z,59.68
2022-12-22T00:57:12.247Z,59.64
2022-12-22T00:59:59.118Z,59.63
2022-12-22T01:02:44.684Z,59.54
2022-12-22T01:05:30.277Z,59.86
2022-12-22T01:08:15.372Z,59.83
2022-12-22T01:11:01.011Z,59.60
2022-12-22T01:13:46.465Z,59.80
2022-12-22T01:16:33.336Z,59.66
2022-12-22T01:19:18.609Z,59.97
2022-12-22T01:22:03.944Z,59.89
2022-12-22T01:24:49.441Z,59.96
2022-12-22T01:27:34.872Z,60.09
2022-12-22T01:30:20.125Z,60.23
2022-12-22T01:33:06.866Z,60.29
2022-12-22T01:35:52.654Z,60.29
2022-12-22T01:38:37.982Z,60.33
2022-12-22T01:41:23.897Z,60.40
2022-12-22T01:44:09.248Z,60.35
2022-12-22T01:46:58.189Z,60.16
2022-12-22T01:49:46.840Z,60.08
2022-12-22T01:52:32.775Z,60.13
2022-12-22T01:55:20.277Z,60.34
2022-12-22T01:58:05.772Z,60.59
2022-12-22T02:00:51.132Z,60.65
2022-12-22T02:03:36.587Z,60.72
2022-12-22T02:06:32.708Z,60.85
2022-12-22T02:09:27.284Z,60.74
2022-12-22T02:12:16.673Z,60.85
2022-12-22T02:15:04.690Z,60.76
2022-12-22T02:17:52.634Z,60.99
2022-12-22T02:20:55.352Z,60.92
2022-12-22T02:23:51.400Z,61.14
2022-12-22T02:26:48.837Z,61.00
2022-12-22T02:29:35.295Z,61.15
2022-12-22T02:32:20.685Z,60.95
2022-12-22T02:35:06.195Z,61.12
2022-12-22T02:37:57.651Z,61.14
2022-12-22T02:40:47.131Z,61.30
2022-12-22T02:43:39.947Z,61.18
2022-12-22T02:46:29.000Z,61.21
2022-12-22T02:49:15.673Z,61.16
2022-12-22T02:52:02.981Z,61.33
2022-12-22T02:54:48.209Z,61.37
2022-12-22T02:57:34.188Z,61.24
2022-12-22T03:00:21.303Z,61.17
2022-12-22T03:03:06.773Z,61.21
2022-12-22T03:05:52.463Z,61.23
2022-12-22T03:08:37.739Z,61.25
2022-12-22T03:11:23.148Z,61.29
2022-12-22T03:14:08.509Z,61.24
2022-12-22T03:16:55.478Z,61.27
2022-12-22T03:19:40.895Z,61.23
2022-12-22T03:22:26.360Z,61.31
2022-12-22T03:25:11.462Z,61.30
2022-12-22T03:27:39.410Z,61.40
2022-12-22T03:30:08.431Z,61.67
2022-12-22T03:32:37.798Z,61.79
2022-12-22T03:35:06.189Z,61.95
2022-12-22T03:37:34.111Z,61.99
2022-12-22T03:40:02.071Z,61.92
2022-12-22T03:42:47.461Z,62.07
2022-12-22T03:45:33.024Z,62.04
2022-12-22T03:48:02.321Z,62.02
2022-12-22T03:50:30.217Z,61.97
2022-12-22T03:52:58.114Z,62.24
2022-12-22T03:55:26.016Z,62.17
2022-12-22T03:57:53.945Z,62.13
2022-12-22T04:00:21.979Z,62.17
2022-12-22T04:02:49.998Z,61.94
2022-12-22T04:05:19.372Z,62.02
2022-12-22T04:07:47.276Z,61.95
2022-12-22T04:10:32.313Z,62.06
2022-12-22T04:13:00.223Z,62.21
2022-12-22T04:15:29.399Z,61.97
2022-12-22T04:17:57.281Z,62.01
2022-12-22T04:20:27.851Z,62.00
2022-12-22T04:22:55.766Z,62.24
2022-12-22T04:25:23.875Z,62.18
2022-12-22T04:27:51.759Z,62.29
2022-12-22T04:30:19.786Z,62.29
2022-12-22T04:32:47.675Z,62.19
2022-12-22T04:35:15.596Z,62.35
2022-12-22T04:37:44.897Z,62.34
2022-12-22T04:40:12.995Z,62.43
2022-12-22T04:42:40.885Z,62.40
2022-12-22T04:45:09.753Z,62.57
2022-12-22T04:47:37.654Z,62.41
2022-12-22T04:50:06.142Z,62.36
2022-12-22T04:52:34.185Z,62.36
2022-12-22T04:55:03.443Z,62.45
2022-12-22T04:57:34.318Z,62.36
2022-12-22T05:00:07.594Z,62.34
2022-12-22T05:02:35.598Z,62.23
2022-12-22T05:05:03.630Z,62.17
2022-12-22T05:07:31.515Z,62.50
2022-12-22T05:09:59.433Z,62.33
2022-12-22T05:12:46.159Z,62.27
2022-12-22T05:15:14.177Z,62.16
2022-12-22T05:17:42.049Z,62.11
2022-12-22T05:20:10.839Z,62.07
2022-12-22T05:22:38.700Z,62.31
2022-12-22T05:25:08.198Z,61.97
2022-12-22T05:27:37.545Z,62.21
2022-12-22T05:30:06.454Z,62.08
2022-12-22T05:32:34.346Z,62.10
2022-12-22T05:35:03.168Z,62.14
2022-12-22T05:37:31.251Z,62.26
2022-12-22T05:39:59.145Z,62.09
2022-12-22T05:42:36.885Z,62.21
2022-12-22T05:45:09.076Z,62.18
2022-12-22T05:47:37.063Z,62.28
2022-12-22T05:50:05.573Z,62.18
2022-12-22T05:52:33.454Z,62.36
2022-12-22T05:55:01.351Z,62.18
2022-12-22T05:57:29.254Z,62.77
2022-12-22T05:59:57.183Z,62.56
2022-12-22T06:02:26.611Z,62.66
2022-12-22T06:04:54.626Z,62.91
2022-12-22T06:07:22.534Z,62.91
2022-12-22T06:09:50.458Z,62.95
2022-12-22T06:12:18.346Z,62.60
2022-12-22T06:14:46.367Z,62.67
2022-12-22T06:17:14.248Z,62.86
2022-12-22T06:19:43.536Z,62.93
2022-12-22T06:22:11.423Z,63.08
2022-12-22T06:24:39.318Z,63.22
2022-12-22T06:27:07.200Z,63.16
2022-12-22T06:29:35.104Z,63.23
2022-12-22T06:32:03.052Z,62.99
2022-12-22T06:34:30.950Z,63.10
2022-12-22T06:37:00.320Z,63.33
2022-12-22T06:39:28.249Z,63.28
2022-12-22T06:42:18.781Z,63.01
2022-12-22T06:44:47.351Z,63.10
2022-12-22T06:47:15.222Z,63.38
2022-12-22T06:49:43.413Z,63.44
2022-12-22T06:52:12.713Z,63.11
2022-12-22T06:54:40.679Z,63.07
2022-12-22T06:57:08.553Z,63.39
2022-12-22T06:59:36.493Z,63.30
2022-12-22T07:02:04.431Z,63.38
2022-12-22T07:04:32.463Z,63.33
2022-12-22T07:07:00.375Z,63.43
2022-12-22T07:09:29.884Z,63.08
2022-12-22T07:11:57.840Z,63.52
2022-12-22T07:14:25.737Z,63.24
2022-12-22T07:16:53.687Z,63.29
2022-12-22T07:19:21.671Z,63.54
2022-12-22T07:21:51.010Z,63.26
2022-12-22T07:24:23.883Z,63.70
2022-12-22T07:26:53.215Z,63.37
2022-12-22T07:29:21.098Z,63.49
2022-12-22T07:31:49.108Z,63.73
2022-12-22T07:34:17.190Z,63.79
2022-12-22T07:36:45.284Z,63.72
2022-12-22T07:39:13.284Z,63.87
2022-12-22T07:41:58.633Z,63.81
2022-12-22T07:44:28.010Z,63.62
2022-12-22T07:46:55.963Z,63.77
2022-12-22T07:49:41.183Z,64.08
2022-12-22T07:52:09.119Z,63.93
2022-12-22T07:54:41.816Z,64.06
2022-12-22T07:57:10.309Z,64.15
2022-12-22T07:59:39.799Z,63.71
2022-12-22T08:02:08.056Z,64.04
2022-12-22T08:04:36.035Z,63.94
2022-12-22T08:07:03.996Z,64.16
2022-12-22T08:09:32.128Z,64.12
2022-12-22T08:12:00.054Z,63.95
2022-12-22T08:14:27.999Z,64.14
2022-12-22T08:16:57.401Z,64.05
2022-12-22T08:19:25.860Z,64.43
2022-12-22T08:21:53.764Z,64.15
2022-12-22T08:24:21.821Z,64.28
2022-12-22T08:26:50.621Z,63.96
2022-12-22T08:29:19.551Z,64.05
2022-12-22T08:31:47.604Z,64.19
2022-12-22T08:34:17.091Z,64.04
2022-12-22T08:36:46.251Z,64.15
2022-12-22T08:39:14.257Z,64.42
2022-12-22T08:41:53.936Z,64.02
2022-12-22T08:44:23.158Z,64.21
2022-12-22T08:46:51.224Z,64.58
2022-12-22T08:49:20.673Z,64.28
2022-12-22T08:51:48.758Z,64.11
2022-12-22T08:54:17.116Z,64.50
2022-12-22T08:56:45.829Z,64.16
2022-12-22T08:59:13.939Z,64.28
2022-12-22T09:01:44.651Z,64.43
2022-12-22T09:04:13.610Z,64.66
2022-12-22T09:06:42.900Z,64.50
2022-12-22T09:09:12.763Z,64.40
2022-12-22T09:11:40.832Z,64.68
2022-12-22T09:14:09.077Z,64.71
2022-12-22T09:16:37.169Z,64.44
2022-12-22T09:19:05.180Z,64.69
2022-12-22T09:21:33.086Z,64.77
2022-12-22T09:24:03.371Z,64.47
2022-12-22T09:26:31.345Z,64.73
2022-12-22T09:28:59.287Z,64.86
2022-12-22T09:31:27.370Z,64.91
2022-12-22T09:33:55.344Z,64.67
2022-12-22T09:36:23.976Z,64.56
2022-12-22T09:38:51.869Z,64.80
2022-12-22T09:41:22.286Z,64.59
2022-12-22T09:43:50.210Z,64.92
2022-12-22T09:46:21.853Z,64.92
2022-12-22T09:48:49.869Z,64.50
2022-12-22T09:51:24.543Z,64.71
2022-12-22T09:53:55.768Z,64.68
2022-12-22T09:56:25.030Z,64.59
2022-12-22T09:58:52.899Z,65.14
2022-12-22T10:01:34.284Z,65.16
2022-12-22T10:04:04.133Z,64.76
2022-12-22T10:06:35.689Z,65.14
2022-12-22T10:09:05.769Z,65.11
2022-12-22T10:11:39.409Z,64.84
2022-12-22T10:14:07.437Z,64.77
2022-12-22T10:16:35.370Z,64.71
2022-12-22T10:19:10.618Z,64.72
2022-12-22T10:21:46.169Z,64.60
2022-12-22T10:24:19.108Z,64.81
2022-12-22T10:26:49.302Z,64.67
2022-12-22T10:29:17.192Z,64.95
2022-12-22T10:31:59.579Z,64.62
2022-12-22T10:34:27.527Z,64.62
2022-12-22T10:36:57.757Z,65.04
2022-12-22T10:39:26.286Z,64.59
2022-12-22T10:41:57.405Z,64.66
2022-12-22T10:44:26.588Z,64.49
2022-12-22T10:46:54.961Z,64.51
2022-12-22T10:49:24.025Z,64.55
2022-12-22T10:51:54.017Z,64.54
2022-12-22T10:54:31.902Z,64.75
2022-12-22T10:57:28.845Z,64.69
2022-12-22T10:59:57.904Z,65.02
2022-12-22T11:02:30.183Z,64.75
2022-12-22T11:05:03.082Z,64.89
2022-12-22T11:07:32.449Z,64.47
2022-12-22T11:10:00.523Z,64.41
2022-12-22T11:12:34.891Z,64.21
2022-12-22T11:15:04.636Z,64.46
2022-12-22T11:17:36.418Z,64.27
2022-12-22T11:20:17.882Z,64.32
2022-12-22T11:22:49.224Z,64.23
2022-12-22T11:25:23.883Z,64.64
2022-12-22T11:28:04.401Z,64.64
2022-12-22T11:30:35.897Z,64.57
2022-12-22T11:33:24.482Z,64.57
2022-12-22T11:35:58.789Z,64.35
2022-12-22T11:38:33.985Z,64.45
2022-12-22T11:41:05.502Z,64.02
2022-12-22T11:43:39.761Z,64.43
2022-12-22T11:46:16.306Z,64.46
2022-12-22T11:49:01.104Z,63.98
2022-12-22T11:51:37.282Z,63.84
2022-12-22T11:54:14.777Z,63.80
2022-12-22T11:56:43.857Z,64.03
2022-12-22T11:59:24.494Z,64.04
2022-12-22T12:02:17.939Z,64.10
2022-12-22T12:05:00.686Z,63.60
2022-12-22T12:07:29.359Z,64.12
2022-12-22T12:10:04.358Z,64.03
2022-12-22T12:12:37.082Z,63.76
2022-12-22T12:15:12.480Z,63.69
2022-12-22T12:17:50.135Z,64.04
2022-12-22T12:20:29.240Z,63.96
2022-12-22T12:23:04.225Z,63.61
2022-12-22T12:25:33.638Z,63.65
2022-12-22T12:28:17.330Z,64.06
2022-12-22T12:30:52.541Z,63.95
2022-12-22T12:33:22.103Z,63.62
2022-12-22T12:35:57.187Z,63.69
2022-12-22T12:39:06.299Z,63.41
2022-12-22T12:41:21.983Z,63.74
2022-12-22T12:43:49.998Z,63.64
2022-12-22T12:46:46.607Z,63.74
2022-12-22T12:50:03.315Z,63.72
2022-12-22T12:53:16.953Z,63.75
2022-12-22T12:56:09.664Z,63.93
2022-12-22T12:58:58.315Z,63.61
2022-12-22T13:02:01.094Z,63.94
2022-12-22T13:05:12.161Z,63.96
2022-12-22T13:08:12.162Z,63.70
2022-12-22T13:10:42.121Z,64.17
2022-12-22T13:13:12.827Z,63.95
2022-12-22T13:15:41.567Z,64.31
2022-12-22T13:18:36.902Z,64.49
2022-12-22T13:26:52.050Z,64.40
2022-12-22T13:29:24.914Z,64.52
2022-12-22T13:31:54.133Z,64.75
2022-12-22T13:35:04.337Z,64.61
2022-12-22T13:37:28.197Z,65.35
2022-12-22T13:40:17.413Z,65.12
2022-12-22T13:42:47.309Z,65.01
2022-12-22T13:45:34.391Z,65.04
2022-12-22T13:48:02.758Z,64.47
2022-12-22T13:50:34.038Z,64.57
2022-12-22T13:53:02.008Z,64.84
2022-12-22T13:55:31.399Z,64.33
2022-12-22T13:58:02.183Z,64.40
2022-12-22T14:00:30.301Z,64.40
2022-12-22T14:02:58.320Z,64.53
2022-12-22T14:05:31.901Z,64.51
2022-12-22T14:08:01.429Z,64.46
2022-12-22T14:10:34.535Z,64.35
2022-12-22T14:13:04.100Z,64.69
2022-12-22T14:15:32.225Z,64.63
2022-12-22T14:18:00.130Z,64.28
2022-12-22T14:20:28.991Z,64.62
2022-12-22T14:23:00.077Z,65.09
2022-12-22T14:25:30.254Z,64.80
2022-12-22T14:27:58.291Z,64.62
2022-12-22T14:30:30.993Z,63.88
2022-12-22T14:33:16.674Z,63.92
2022-12-22T14:35:44.698Z,64.14
2022-12-22T14:38:22.295Z,64.28
2022-12-22T14:40:56.528Z,64.13
2022-12-22T14:43:27.973Z,63.99
2022-12-22T14:46:03.042Z,63.93
2022-12-22T14:48:32.568Z,63.58
2022-12-22T14:51:00.526Z,63.95
2022-12-22T14:53:33.851Z,63.64
2022-12-22T14:56:01.743Z,64.03
2022-12-22T14:58:30.919Z,64.16
2022-12-22T15:01:14.217Z,64.22
2022-12-22T15:03:42.269Z,64.10
2022-12-22T15:06:34.315Z,63.78
2022-12-22T15:10:12.612Z,63.77
2022-12-22T15:12:15.568Z,63.72
2022-12-22T15:14:43.565Z,64.03
2022-12-22T15:17:17.932Z,63.72
2022-12-22T15:19:45.823Z,63.59
2022-12-22T15:22:14.084Z,64.18
2022-12-22T15:24:43.405Z,63.57
2022-12-22T15:27:11.337Z,63.64
2022-12-22T15:29:39.233Z,63.56
2022-12-22T15:32:11.072Z,63.84
2022-12-22T15:34:38.967Z,64.01
2022-12-22T15:37:06.849Z,63.90
2022-12-22T15:39:34.760Z,63.71
2022-12-22T15:42:04.194Z,63.75
2022-12-22T15:44:38.288Z,63.81
2022-12-22T15:47:06.901Z,64.04
2022-12-22T15:49:34.882Z,64.06
2022-12-22T15:52:03.734Z,63.97
2022-12-22T15:54:33.252Z,63.91
2022-12-22T15:57:01.366Z,63.78
2022-12-22T15:59:31.033Z,64.01
2022-12-22T16:02:01.775Z,64.06
2022-12-22T16:04:30.510Z,64.05
2022-12-22T16:06:59.592Z,64.02
2022-12-22T16:09:28.927Z,64.03
2022-12-22T16:11:56.878Z,64.18
2022-12-22T16:14:24.714Z,64.12
2022-12-22T16:16:54.023Z,64.15
2022-12-22T16:19:21.985Z,64.09
2022-12-22T16:21:50.671Z,64.04
2022-12-22T16:24:23.599Z,64.01
2022-12-22T16:26:51.523Z,64.07
2022-12-22T16:29:19.452Z,63.70
2022-12-22T16:31:49.545Z,63.49
2022-12-22T16:34:18.991Z,63.69
2022-12-22T16:36:46.874Z,63.73
2022-12-22T16:39:14.746Z,64.04
2022-12-22T16:41:42.664Z,63.95
2022-12-22T16:44:10.948Z,64.01
2022-12-22T16:46:39.195Z,64.18
2022-12-22T16:49:08.659Z,64.20
2022-12-22T16:51:47.827Z,64.07
2022-12-22T16:54:15.895Z,64.09
2022-12-22T16:56:46.690Z,63.94
2022-12-22T16:59:14.825Z,64.22
2022-12-22T17:01:44.096Z,64.08
2022-12-22T17:04:14.126Z,64.04
2022-12-22T17:06:43.552Z,64.07
2022-12-22T17:09:14.134Z,63.89
2022-12-22T17:11:42.301Z,63.66
2022-12-22T17:14:17.009Z,64.08
2022-12-22T17:16:44.924Z,63.69
2022-12-22T17:19:12.935Z,63.79
2022-12-22T17:21:40.849Z,63.92
2022-12-22T17:24:11.710Z,63.76
2022-12-22T17:26:39.636Z,63.84
2022-12-22T17:29:07.601Z,63.62
2022-12-22T17:31:35.613Z,63.92
2022-12-22T17:34:11.766Z,63.53
2022-12-22T17:36:40.224Z,63.53
2022-12-22T17:39:11.360Z,63.46
2022-12-22T17:41:39.336Z,63.53
2022-12-22T17:44:07.640Z,63.56
2022-12-22T17:46:36.180Z,63.64
2022-12-22T17:49:04.200Z,63.47
2022-12-22T17:51:32.202Z,63.32
2022-12-22T17:54:00.221Z,63.67
2022-12-22T17:56:30.589Z,63.51
2022-12-22T17:58:58.480Z,63.55
2022-12-22T18:01:28.582Z,63.09
2022-12-22T18:03:56.793Z,63.35
2022-12-22T18:06:26.601Z,63.04
2022-12-22T18:08:55.656Z,63.11
2022-12-22T18:11:23.843Z,63.25
2022-12-22T18:13:53.558Z,63.22
2022-12-22T18:16:23.236Z,63.49
2022-12-22T18:18:51.609Z,63.08
2022-12-22T18:21:20.638Z,63.16
2022-12-22T18:23:50.706Z,63.12
2022-12-22T18:26:21.771Z,63.06
2022-12-22T18:28:50.075Z,63.10
2022-12-22T18:31:19.581Z,63.09
2022-12-22T18:33:47.564Z,62.87
2022-12-22T18:36:22.305Z,62.90
2022-12-22T18:38:50.199Z,62.97
2022-12-22T18:41:21.703Z,62.97
2022-12-22T18:43:49.907Z,62.85
2022-12-22T18:46:19.422Z,62.67
2022-12-22T18:48:47.508Z,62.63
2022-12-22T18:51:19.057Z,62.54
2022-12-22T18:53:46.998Z,62.62
2022-12-22T18:56:15.240Z,62.66
2022-12-22T18:58:43.279Z,62.65
2022-12-22T19:01:17.869Z,62.35
2022-12-22T19:03:47.664Z,62.27
2022-12-22T19:06:16.362Z,62.36
2022-12-22T19:08:46.176Z,62.03
2022-12-22T19:11:14.448Z,62.14
2022-12-22T19:13:44.773Z,61.89
2022-12-22T19:16:13.281Z,62.04
2022-12-22T19:18:41.210Z,61.82
2022-12-22T19:21:13.275Z,61.95
2022-12-22T19:23:41.238Z,61.83
2022-12-22T19:26:16.745Z,61.82
2022-12-22T19:28:45.031Z,61.72
2022-12-22T19:31:17.777Z,61.46
2022-12-22T19:33:45.808Z,61.61
2022-12-22T19:36:17.154Z,61.53
2022-12-22T19:38:50.287Z,61.46
2022-12-22T19:41:27.446Z,61.38
2022-12-22T19:43:55.388Z,61.43
2022-12-22T19:46:30.574Z,61.26
2022-12-22T19:48:58.609Z,61.23
2022-12-22T19:51:27.872Z,61.38
2022-12-22T19:53:55.784Z,61.12
2022-12-22T19:56:25.230Z,61.08
2022-12-22T19:58:53.143Z,61.33
2022-12-22T20:01:21.138Z,61.24
2022-12-22T20:03:49.128Z,61.35
2022-12-22T20:06:17.627Z,61.17
2022-12-22T20:08:47.169Z,61.00
2022-12-22T20:11:15.568Z,61.01
2022-12-22T20:13:43.476Z,61.17
2022-12-22T20:16:13.731Z,60.91
2022-12-22T20:18:41.679Z,60.84
2022-12-22T20:21:13.053Z,61.12
2022-12-22T20:23:41.263Z,60.93
2022-12-22T20:26:15.162Z,60.98
2022-12-22T20:28:43.036Z,61.03
2022-12-22T20:31:13.099Z,60.70
2022-12-22T20:33:41.073Z,60.77
2022-12-22T20:36:15.236Z,60.91
2022-12-22T20:38:43.193Z,61.02
2022-12-22T20:41:12.483Z,60.98
2022-12-22T20:43:40.419Z,60.67
2022-12-22T20:46:13.446Z,60.82
2022-12-22T20:48:43.754Z,61.02
2022-12-22T20:51:13.732Z,60.99
2022-12-22T20:53:41.617Z,60.81
2022-12-22T20:56:17.860Z,60.73
2022-12-22T20:58:45.798Z,60.74
2022-12-22T21:01:13.769Z,60.91
2022-12-22T21:03:41.818Z,60.86
2022-12-22T21:06:26.623Z,61.13
2022-12-22T21:08:55.363Z,60.80
2022-12-22T21:11:25.017Z,61.11
2022-12-22T21:13:52.995Z,61.29
2022-12-22T21:16:23.161Z,61.27
2022-12-22T21:18:51.227Z,61.25
2022-12-22T21:21:19.099Z,61.21
2022-12-22T21:23:47.119Z,61.32
2022-12-22T21:26:19.977Z,61.31
2022-12-22T21:28:49.306Z,61.48
2022-12-22T21:31:17.255Z,61.18
2022-12-22T21:33:45.396Z,61.42
2022-12-22T21:36:17.765Z,61.06
2022-12-22T21:38:47.386Z,61.44
2022-12-22T21:41:15.327Z,61.26
2022-12-22T21:43:43.426Z,61.50
2022-12-22T21:46:13.835Z,61.03
2022-12-22T21:48:41.865Z,61.03
2022-12-22T21:51:12.139Z,61.17
2022-12-22T21:53:40.115Z,60.96
2022-12-22T21:56:16.514Z,61.16
2022-12-22T21:58:44.406Z,60.93
2022-12-22T22:01:14.216Z,61.12
2022-12-22T22:03:42.471Z,60.87
2022-12-22T22:06:10.818Z,60.82
2022-12-22T22:08:38.726Z,60.92
2022-12-22T22:11:07.273Z,60.90
2022-12-22T22:13:35.214Z,61.15
2022-12-22T22:16:03.182Z,60.81
2022-12-22T22:18:32.539Z,60.86
2022-12-22T22:21:00.503Z,60.85
2022-12-22T22:23:28.482Z,60.92
2022-12-22T22:25:58.283Z,60.79
2022-12-22T22:28:26.160Z,61.04
2022-12-22T22:30:54.211Z,61.18
2022-12-22T22:33:22.172Z,61.33
2022-12-22T22:35:53.824Z,61.39
2022-12-22T22:38:22.011Z,61.51
2022-12-22T22:40:50.202Z,61.59
2022-12-22T22:43:18.060Z,61.51
2022-12-22T22:45:46.135Z,61.34
2022-12-22T22:48:19.001Z,61.27
2022-12-22T22:50:46.906Z,61.21
2022-12-22T22:53:16.397Z,61.68
2022-12-22T22:55:44.280Z,61.26
2022-12-22T22:58:12.383Z,61.18
2022-12-22T23:00:40.301Z,61.28
2022-12-22T23:03:08.367Z,61.08
2022-12-22T23:05:36.474Z,61.49
2022-12-22T23:08:04.498Z,61.34
2022-12-22T23:10:41.164Z,61.35
2022-12-22T23:13:09.845Z,61.32
2022-12-22T23:15:37.737Z,61.06
2022-12-22T23:18:05.937Z,61.30
2022-12-22T23:20:33.892Z,61.09
2022-12-22T23:23:01.814Z,61.06
2022-12-22T23:25:29.727Z,61.09
2022-12-22T23:27:59.059Z,61.07
2022-12-22T23:30:26.931Z,60.97
2022-12-22T23:32:54.802Z,60.95
2022-12-22T23:35:22.772Z,60.98
2022-12-22T23:37:50.642Z,61.39
2022-12-22T23:40:50.644Z,61.42
2022-12-22T23:43:08.429Z,61.17
2022-12-22T23:45:36.347Z,61.11
2022-12-22T23:48:04.336Z,61.08
2022-12-22T23:50:32.477Z,61.12
2022-12-22T23:53:00.367Z,61.16
2022-12-22T23:55:28.282Z,61.42
2022-12-22T23:57:56.163Z,61.31
